Time;durP1;ratioP1;P1;durP2;ratioP2;P2;SDS_P1;SDS_P2;PMS_P1;PMS_P2;Temp;Humidity;BMP_temperature;BMP_pressure;BME280_temperature;BME280_humidity;BME280_pressure;Samples;Min_cycle;Max_cycle;Signal;HPM_P1;HPM_P2
2023/07/22 00:00:28;;;;;;;8.80;6.55;;;16.60;99.90;;;;;;4974230;28;20193;-81
2023/07/22 00:02:54;;;;;;;10.98;6.80;;;16.60;99.90;;;;;;4974493;28;20667;-81
2023/07/22 00:05:23;;;;;;;8.45;6.28;;;16.60;99.90;;;;;;4974149;28;20191;-80
2023/07/22 00:07:49;;;;;;;9.15;6.47;;;16.50;99.90;;;;;;4972740;28;20234;-80
2023/07/22 00:10:15;;;;;;;8.05;5.85;;;16.60;99.90;;;;;;4974273;28;20230;-80
2023/07/22 00:12:41;;;;;;;11.18;7.22;;;16.50;99.90;;;;;;4968685;28;20285;-80
2023/07/22 00:15:07;;;;;;;10.90;7.95;;;16.50;99.90;;;;;;4972797;28;20632;-80
2023/07/22 00:17:33;;;;;;;20.38;12.63;;;16.50;99.90;;;;;;4972562;28;20966;-80
2023/07/22 00:20:00;;;;;;;15.27;10.60;;;16.50;99.90;;;;;;4972570;28;20189;-80
2023/07/22 00:22:26;;;;;;;19.38;10.57;;;16.50;99.90;;;;;;4956986;28;20188;-80
2023/07/22 00:24:52;;;;;;;14.48;9.30;;;16.50;99.90;;;;;;4957015;28;20193;-80
2023/07/22 00:27:18;;;;;;;13.88;10.10;;;16.50;99.90;;;;;;4973878;28;20182;-80
2023/07/22 00:29:44;;;;;;;13.32;9.30;;;16.50;99.90;;;;;;4972729;28;20268;-80
2023/07/22 00:32:09;;;;;;;13.38;9.02;;;16.50;99.90;;;;;;4956771;28;20301;-80
2023/07/22 00:34:36;;;;;;;8.07;5.93;;;16.40;99.90;;;;;;4956430;28;20198;-81
2023/07/22 00:37:02;;;;;;;7.95;5.85;;;16.40;99.90;;;;;;4973852;28;20182;-80
2023/07/22 00:39:28;;;;;;;8.02;4.88;;;16.40;99.90;;;;;;4973808;28;20178;-80
2023/07/22 00:41:53;;;;;;;6.60;5.22;;;16.50;99.90;;;;;;4974146;28;20190;-80
2023/07/22 00:44:19;;;;;;;6.60;5.07;;;16.50;99.90;;;;;;4956574;28;20268;-81
2023/07/22 00:46:45;;;;;;;6.35;4.15;;;16.50;99.90;;;;;;4956762;28;20186;-80
2023/07/22 00:49:14;;;;;;;9.77;4.90;;;16.50;99.90;;;;;;4956618;28;20730;-80
2023/07/22 00:51:40;;;;;;;9.98;4.90;;;16.50;99.90;;;;;;4956373;28;20182;-81
2023/07/22 00:54:06;;;;;;;6.05;4.35;;;16.60;99.90;;;;;;4974166;28;20193;-80
2023/07/22 00:56:35;;;;;;;6.47;4.38;;;16.60;99.90;;;;;;4940513;28;20189;-80
2023/07/22 00:59:01;;;;;;;4.70;3.80;;;16.60;99.90;;;;;;4956771;28;20182;-80
2023/07/22 01:01:27;;;;;;;5.00;3.47;;;16.60;99.90;;;;;;4956372;28;20547;-81
2023/07/22 01:03:52;;;;;;;5.85;3.88;;;16.60;99.90;;;;;;4940404;28;20186;-81
2023/07/22 01:06:19;;;;;;;5.93;4.50;;;16.60;99.90;;;;;;4956706;28;20186;-81
2023/07/22 01:08:48;;;;;;;6.00;4.18;;;16.50;99.90;;;;;;4973788;28;20230;-80
2023/07/22 01:11:14;;;;;;;5.65;4.00;;;16.50;99.90;;;;;;4956582;28;20543;-81
2023/07/22 01:13:39;;;;;;;6.30;3.92;;;16.50;99.90;;;;;;4956218;28;20811;-81
2023/07/22 01:16:06;;;;;;;6.13;3.88;;;16.50;99.90;;;;;;4956426;28;20186;-80
2023/07/22 01:18:33;;;;;;;3.80;3.45;;;16.60;99.90;;;;;;4956208;28;20198;-80
2023/07/22 01:20:59;;;;;;;3.88;3.28;;;16.60;99.90;;;;;;4940514;28;20179;-81
2023/07/22 01:23:24;;;;;;;5.07;3.55;;;16.60;99.90;;;;;;4956135;28;20241;-81
2023/07/22 01:25:51;;;;;;;7.30;3.83;;;16.60;99.90;;;;;;4956704;28;20538;-81
2023/07/22 01:28:17;;;;;;;7.90;4.32;;;16.60;99.90;;;;;;4956204;28;20202;-80
2023/07/22 01:30:42;;;;;;;7.47;3.58;;;16.60;99.90;;;;;;4956068;28;20183;-81
2023/07/22 01:33:08;;;;;;;4.85;4.10;;;16.60;99.90;;;;;;4976971;28;20234;-81
2023/07/22 01:35:34;;;;;;;6.72;4.13;;;16.60;99.90;;;;;;4976999;28;20186;-81
2023/07/22 01:38:00;;;;;;;5.32;3.97;;;16.60;99.90;;;;;;4960000;28;20593;-81
2023/07/22 01:40:26;;;;;;;5.35;3.90;;;16.60;99.90;;;;;;4943498;28;20187;-81
2023/07/22 01:42:51;;;;;;;5.88;4.80;;;16.60;99.90;;;;;;4977009;28;20280;-81
2023/07/22 01:45:17;;;;;;;5.85;4.18;;;16.60;99.90;;;;;;4959629;28;20206;-81
2023/07/22 01:47:42;;;;;;;5.97;3.70;;;16.60;99.90;;;;;;4976574;28;20182;-82
2023/07/22 01:50:10;;;;;;;6.15;4.47;;;16.60;99.90;;;;;;4959805;28;20595;-81
2023/07/22 01:52:35;;;;;;;4.88;3.85;;;16.60;99.90;;;;;;4959267;28;20210;-81
2023/07/22 01:55:05;;;;;;;7.40;4.75;;;16.60;99.90;;;;;;4959565;28;20237;-80
2023/07/22 01:57:31;;;;;;;6.50;4.47;;;16.70;99.90;;;;;;4959246;28;20643;-81
2023/07/22 01:59:56;;;;;;;5.03;4.13;;;16.60;99.90;;;;;;4943363;28;20274;-81
2023/07/22 02:02:22;;;;;;;4.82;3.85;;;16.60;99.90;;;;;;4959437;28;20264;-81
2023/07/22 02:04:48;;;;;;;8.40;4.50;;;16.60;99.90;;;;;;4959162;28;20201;-82
2023/07/22 02:07:14;;;;;;;5.20;4.20;;;16.70;99.90;;;;;;4943354;28;20242;-81
2023/07/22 02:09:40;;;;;;;4.63;4.00;;;16.70;99.90;;;;;;4959305;28;20175;-82
2023/07/22 02:12:07;;;;;;;9.43;3.72;;;16.70;99.90;;;;;;4959262;28;20261;-81
2023/07/22 02:14:33;;;;;;;7.10;4.20;;;16.70;99.90;;;;;;4976200;28;20314;-82
2023/07/22 02:16:59;;;;;;;6.22;4.60;;;16.70;99.90;;;;;;4927080;28;20735;-81
2023/07/22 02:19:24;;;;;;;7.45;4.43;;;16.70;99.90;;;;;;4943208;28;20273;-81
2023/07/22 02:21:50;;;;;;;5.53;4.22;;;16.70;99.90;;;;;;4958769;28;20289;-81
2023/07/22 02:24:16;;;;;;;6.03;4.40;;;16.70;99.90;;;;;;4959156;28;20663;-81
2023/07/22 02:26:41;;;;;;;7.35;5.20;;;16.70;99.90;;;;;;4942756;28;20202;-81
2023/07/22 02:29:07;;;;;;;6.35;3.90;;;16.60;99.90;;;;;;4976213;28;20643;-81
2023/07/22 02:31:33;;;;;;;7.35;3.72;;;16.60;99.90;;;;;;4975776;28;20705;-81
2023/07/22 02:33:59;;;;;;;7.22;4.80;;;16.60;99.90;;;;;;4959409;28;20540;-81
2023/07/22 02:36:24;;;;;;;4.72;4.03;;;16.60;99.90;;;;;;4958931;28;20189;-81
2023/07/22 02:38:50;;;;;;;6.18;4.47;;;16.50;99.90;;;;;;4958492;28;20191;-82
2023/07/22 02:41:16;;;;;;;6.47;4.32;;;16.50;99.90;;;;;;4958975;28;20213;-81
2023/07/22 02:43:41;;;;;;;5.40;4.35;;;16.50;99.90;;;;;;4942284;28;20190;-82
2023/07/22 02:46:08;;;;;;;5.95;4.03;;;16.50;99.90;;;;;;4958652;28;20206;-82
2023/07/22 02:48:34;;;;;;;8.45;4.38;;;16.50;99.90;;;;;;4942535;28;20639;-84
2023/07/22 02:51:04;;;;;;;7.22;4.30;;;16.50;99.90;;;;;;4976030;28;20229;-84
2023/07/22 02:53:31;;;;;;;6.75;4.20;;;16.40;99.90;;;;;;4975918;28;20206;-84
2023/07/22 02:55:57;;;;;;;5.43;4.20;;;16.40;99.90;;;;;;4959020;28;20221;-84
2023/07/22 02:58:23;;;;;;;5.32;4.35;;;16.40;99.90;;;;;;4942557;28;20210;-84
2023/07/22 03:00:48;;;;;;;6.35;4.63;;;16.40;99.90;;;;;;4942146;28;20615;-84
2023/07/22 03:03:14;;;;;;;8.73;4.13;;;16.40;99.90;;;;;;4975835;28;20187;-85
2023/07/22 03:05:40;;;;;;;5.68;4.90;;;16.40;99.90;;;;;;4975386;28;20183;-84
2023/07/22 03:08:06;;;;;;;6.65;4.60;;;16.40;99.90;;;;;;4942500;28;20301;-84
2023/07/22 03:10:32;;;;;;;5.80;4.72;;;16.30;99.90;;;;;;4958376;28;20182;-84
2023/07/22 03:12:59;;;;;;;5.75;4.93;;;16.30;99.90;;;;;;4975659;28;20248;-85
2023/07/22 03:15:26;;;;;;;5.65;4.43;;;16.30;99.90;;;;;;4975525;28;20175;-84
2023/07/22 03:17:52;;;;;;;8.57;4.78;;;16.30;99.90;;;;;;4975105;28;20171;-84
2023/07/22 03:20:19;;;;;;;7.55;5.10;;;16.30;99.90;;;;;;4941869;28;20183;-84
2023/07/22 03:22:45;;;;;;;10.07;4.97;;;16.30;99.90;;;;;;4958030;28;20189;-84
2023/07/22 03:25:12;;;;;;;11.02;5.28;;;16.30;99.90;;;;;;4957807;28;20236;-84
2023/07/22 03:27:38;;;;;;;6.65;4.97;;;16.20;99.90;;;;;;4974783;28;20198;-85
2023/07/22 03:30:10;;;;;;;7.43;5.63;;;16.20;99.90;;;;;;4975269;28;20179;-84
2023/07/22 03:32:36;;;;;;;5.53;4.28;;;16.30;99.90;;;;;;4957724;28;20216;-85
2023/07/22 03:35:02;;;;;;;5.72;4.50;;;16.20;99.90;;;;;;4957623;28;20182;-84
2023/07/22 03:37:28;;;;;;;8.70;5.30;;;16.20;99.90;;;;;;4957636;28;20194;-83
2023/07/22 03:39:54;;;;;;;6.45;4.95;;;16.30;99.90;;;;;;4957465;28;20190;-84
2023/07/22 03:42:20;;;;;;;11.88;5.90;;;16.30;99.90;;;;;;4974771;28;20191;-83
2023/07/22 03:44:45;;;;;;;7.72;5.47;;;16.30;99.90;;;;;;4941387;28;20190;-84
2023/07/22 03:47:11;;;;;;;7.93;5.68;;;16.40;99.90;;;;;;4974665;28;20585;-84
2023/07/22 03:49:37;;;;;;;10.30;5.80;;;16.30;99.90;;;;;;4941558;28;20564;-84
2023/07/22 03:52:03;;;;;;;6.90;5.30;;;16.40;99.90;;;;;;4957061;28;20214;-84
2023/07/22 03:54:28;;;;;;;8.90;6.15;;;16.40;99.90;;;;;;4957025;28;20603;-84
2023/07/22 03:56:54;;;;;;;6.30;5.18;;;16.40;99.90;;;;;;4941039;28;20183;-83
2023/07/22 03:59:19;;;;;;;8.57;5.80;;;16.40;99.90;;;;;;4941415;28;20183;-83
2023/07/22 04:01:46;;;;;;;7.82;5.45;;;16.40;99.90;;;;;;4938139;28;20595;-84
2023/07/22 04:04:12;;;;;;;7.40;5.35;;;16.40;99.90;;;;;;4972287;28;20190;-84
2023/07/22 04:06:38;;;;;;;10.18;6.07;;;16.40;99.90;;;;;;4941087;28;20302;-84
2023/07/22 04:09:03;;;;;;;9.02;5.60;;;16.40;99.90;;;;;;4940702;28;20249;-84
2023/07/22 04:11:29;;;;;;;7.47;5.57;;;16.50;99.90;;;;;;4957008;28;20723;-84
2023/07/22 04:13:54;;;;;;;8.73;5.55;;;16.50;99.90;;;;;;4940901;28;20230;-84
2023/07/22 04:16:23;;;;;;;9.50;6.75;;;16.50;99.90;;;;;;4941163;28;20194;-84
2023/07/22 04:18:49;;;;;;;9.35;5.90;;;16.50;99.90;;;;;;4955251;28;20191;-84
2023/07/22 04:21:14;;;;;;;7.22;5.60;;;16.50;99.90;;;;;;4945908;28;20179;-84
2023/07/22 04:23:40;;;;;;;8.68;5.88;;;16.50;99.90;;;;;;4956813;28;20556;-84
2023/07/22 04:26:07;;;;;;;9.23;6.10;;;16.50;99.90;;;;;;4955697;28;20679;-84
2023/07/22 04:28:34;;;;;;;7.22;5.30;;;16.50;99.90;;;;;;4956078;28;20644;-85
2023/07/22 04:31:00;;;;;;;7.82;5.28;;;16.50;99.90;;;;;;4967573;28;20187;-85
2023/07/22 04:33:27;;;;;;;7.78;5.53;;;16.50;99.90;;;;;;4974069;28;20213;-85
2023/07/22 04:35:58;;;;;;;7.03;6.32;;;16.50;99.90;;;;;;4972078;28;20644;-85
2023/07/22 04:38:24;;;;;;;11.52;6.70;;;16.60;99.90;;;;;;4971161;28;20183;-85
2023/07/22 04:40:49;;;;;;;10.55;7.00;;;16.60;99.90;;;;;;4972391;28;20191;-85
2023/07/22 04:43:15;;;;;;;10.35;7.15;;;16.70;99.90;;;;;;4943374;29;20219;-85
2023/07/22 04:45:40;;;;;;;9.10;5.82;;;16.70;99.90;;;;;;4954749;29;20185;-85
2023/07/22 04:48:06;;;;;;;13.50;7.20;;;16.80;99.90;;;;;;4954478;29;20187;-85
2023/07/22 04:50:33;;;;;;;9.70;6.18;;;16.80;99.90;;;;;;4953495;29;20700;-85
2023/07/22 04:52:59;;;;;;;7.80;5.97;;;16.80;99.90;;;;;;4953048;29;20211;-85
2023/07/22 04:55:26;;;;;;;7.28;6.07;;;16.90;99.90;;;;;;4953423;29;20179;-85
2023/07/22 04:57:51;;;;;;;9.95;6.50;;;16.90;99.90;;;;;;4953113;29;20199;-85
2023/07/22 05:00:18;;;;;;;8.55;6.68;;;16.90;99.90;;;;;;4953866;28;20641;-85
2023/07/22 05:02:46;;;;;;;10.88;5.97;;;17.00;99.90;;;;;;4956773;28;20187;-84
2023/07/22 05:05:12;;;;;;;7.72;6.05;;;16.90;99.90;;;;;;4955145;28;20175;-85
2023/07/22 05:07:38;;;;;;;7.32;5.88;;;16.90;99.90;;;;;;4940319;29;20235;-84
2023/07/22 05:10:04;;;;;;;9.40;6.28;;;16.90;99.90;;;;;;4942543;28;20328;-85
2023/07/22 05:12:30;;;;;;;9.23;5.80;;;16.90;99.90;;;;;;4954357;28;20222;-84
2023/07/22 05:14:55;;;;;;;9.98;6.10;;;17.00;99.90;;;;;;4964371;28;20186;-85
2023/07/22 05:17:21;;;;;;;8.93;6.82;;;17.00;99.90;;;;;;4953418;28;20669;-85
2023/07/22 05:19:48;;;;;;;10.05;7.10;;;17.00;99.90;;;;;;4964351;28;20683;-84
2023/07/22 05:22:14;;;;;;;9.48;6.90;;;17.00;99.90;;;;;;4951058;28;20549;-84
2023/07/22 05:24:40;;;;;;;10.13;6.72;;;17.00;99.90;;;;;;4947347;28;20183;-84
2023/07/22 05:27:06;;;;;;;11.38;6.88;;;17.00;99.90;;;;;;4968788;28;20629;-84
2023/07/22 05:29:31;;;;;;;9.30;7.00;;;17.00;99.90;;;;;;4966662;28;20645;-87
2023/07/22 05:31:57;;;;;;;11.77;6.90;;;17.00;99.90;;;;;;4950464;29;20254;-87
2023/07/22 05:34:23;;;;;;;10.65;7.88;;;17.10;99.90;;;;;;4959071;28;20196;-83
2023/07/22 05:36:48;;;;;;;7.30;6.10;;;17.10;99.90;;;;;;4964727;28;20191;-86
2023/07/22 05:39:17;;;;;;;9.63;6.43;;;17.20;99.90;;;;;;4966381;28;20270;-87
2023/07/22 05:41:43;;;;;;;9.27;6.85;;;17.30;99.90;;;;;;4956997;28;20700;-87
2023/07/22 05:44:08;;;;;;;8.68;6.53;;;17.20;99.90;;;;;;4964741;28;20279;-86
2023/07/22 05:46:34;;;;;;;10.25;7.30;;;17.20;99.90;;;;;;4966542;28;20186;-86
2023/07/22 05:48:59;;;;;;;7.97;5.65;;;17.30;99.90;;;;;;4965211;28;20179;-86
2023/07/22 05:51:26;;;;;;;11.02;6.63;;;17.30;99.90;;;;;;4948967;28;20197;-86
2023/07/22 05:53:52;;;;;;;8.75;6.65;;;17.30;99.90;;;;;;4966107;28;20198;-86
2023/07/22 05:56:17;;;;;;;10.15;6.43;;;17.30;99.90;;;;;;4965197;28;20210;-85
2023/07/22 05:58:43;;;;;;;10.25;5.97;;;17.50;99.90;;;;;;4966009;28;20222;-84
2023/07/22 06:01:10;;;;;;;7.30;5.95;;;17.60;99.90;;;;;;4950720;28;20196;-84
2023/07/22 06:03:36;;;;;;;9.63;6.53;;;17.70;99.90;;;;;;4956022;28;20190;-84
2023/07/22 06:06:01;;;;;;;12.68;6.60;;;17.80;99.90;;;;;;4965995;28;20187;-84
2023/07/22 06:08:27;;;;;;;9.65;7.10;;;17.90;99.90;;;;;;4945449;28;20296;-85
2023/07/22 06:10:53;;;;;;;8.20;6.05;;;18.10;99.90;;;;;;4939914;29;20543;-86
2023/07/22 06:13:19;;;;;;;8.85;6.03;;;18.10;99.90;;;;;;4941978;28;20703;-86
2023/07/22 06:15:44;;;;;;;9.23;7.05;;;18.20;99.90;;;;;;4975391;28;20262;-85
2023/07/22 06:18:10;;;;;;;6.47;5.30;;;18.30;99.90;;;;;;4955345;28;20285;-86
2023/07/22 06:20:36;;;;;;;8.57;5.90;;;18.20;99.90;;;;;;4961481;28;20193;-86
2023/07/22 06:23:05;;;;;;;7.93;5.20;;;18.10;99.90;;;;;;4977083;28;20186;-87
2023/07/22 06:25:31;;;;;;;8.13;4.93;;;18.10;99.90;;;;;;4994858;28;20674;-86
2023/07/22 06:27:56;;;;;;;10.48;5.30;;;18.10;99.90;;;;;;4977699;28;20182;-86
2023/07/22 06:30:22;;;;;;;9.80;5.15;;;18.20;99.90;;;;;;4961797;28;20232;-86
2023/07/22 06:32:48;;;;;;;7.03;4.72;;;18.30;99.90;;;;;;4979910;28;20370;-86
2023/07/22 06:35:13;;;;;;;7.50;4.80;;;18.20;99.90;;;;;;4976223;28;20234;-86
2023/07/22 06:37:40;;;;;;;6.43;5.03;;;18.10;99.90;;;;;;4953623;28;20197;-86
2023/07/22 06:40:06;;;;;;;6.10;5.15;;;18.10;99.90;;;;;;4943185;28;20241;-86
2023/07/22 06:42:32;;;;;;;6.57;5.70;;;18.20;99.90;;;;;;4975967;28;20183;-86
2023/07/22 06:44:58;;;;;;;7.93;5.43;;;18.30;99.90;;;;;;4975980;28;20668;-85
2023/07/22 06:47:23;;;;;;;5.95;4.65;;;18.50;99.90;;;;;;4976141;28;20193;-85
2023/07/22 06:49:50;;;;;;;6.13;4.80;;;18.50;99.90;;;;;;4974599;28;20202;-85
2023/07/22 06:52:16;;;;;;;6.00;5.28;;;18.70;99.90;;;;;;4974290;28;20313;-85
2023/07/22 06:54:42;;;;;;;4.65;4.10;;;18.90;99.90;;;;;;4974546;28;20241;-85
2023/07/22 06:57:08;;;;;;;5.38;4.57;;;19.10;99.90;;;;;;4974467;28;20561;-85
2023/07/22 06:59:34;;;;;;;5.75;4.57;;;19.00;99.90;;;;;;4974198;28;20182;-85
2023/07/22 07:01:59;;;;;;;5.85;4.35;;;19.20;99.90;;;;;;4942210;28;20236;-85
2023/07/22 07:04:25;;;;;;;4.22;3.78;;;19.30;99.90;;;;;;4974084;28;20639;-85
2023/07/22 07:06:51;;;;;;;4.60;3.67;;;19.30;99.90;;;;;;4958196;28;20312;-84
2023/07/22 07:09:17;;;;;;;5.60;3.45;;;19.30;99.90;;;;;;4924171;29;20279;-85
2023/07/22 07:11:43;;;;;;;4.13;3.63;;;19.40;99.90;;;;;;4956010;29;20186;-85
2023/07/22 07:14:08;;;;;;;4.13;3.70;;;19.40;99.90;;;;;;4923168;29;20195;-86
2023/07/22 07:16:35;;;;;;;6.57;4.13;;;19.30;99.90;;;;;;4955935;29;20226;-86
2023/07/22 07:19:01;;;;;;;3.40;3.08;;;19.50;99.90;;;;;;4922983;29;20191;-86
2023/07/22 07:21:27;;;;;;;3.95;3.40;;;19.50;99.90;;;;;;4956077;29;20187;-86
2023/07/22 07:23:53;;;;;;;3.90;3.20;;;19.60;99.90;;;;;;4960769;29;20179;-86
2023/07/22 07:26:20;;;;;;;8.27;3.35;;;19.80;99.90;;;;;;4940452;29;20179;-86
2023/07/22 07:28:52;;;;;;;4.38;3.03;;;19.80;99.90;;;;;;4938181;29;20191;-87
2023/07/22 07:31:18;;;;;;;9.00;3.75;;;18.60;99.90;;;;;;4938496;29;20230;-86
2023/07/22 07:33:44;;;;;;;3.92;3.40;;;19.70;99.90;;;;;;4955528;29;20214;-86
2023/07/22 07:36:09;;;;;;;6.25;4.15;;;19.70;99.90;;;;;;4922433;29;20183;-86
2023/07/22 07:38:35;;;;;;;4.60;3.33;;;19.80;99.90;;;;;;4938465;29;20247;-87
2023/07/22 07:41:11;;;;;;;3.70;3.33;;;19.80;99.90;;;;;;4922411;29;20648;-86
2023/07/22 07:43:40;;;;;;;5.72;4.00;;;19.90;99.90;;;;;;4938358;29;20199;-87
2023/07/22 07:46:17;;;;;;;4.93;3.30;;;20.20;99.90;;;;;;4938295;29;20175;-85
2023/07/22 07:48:52;;;;;;;4.13;3.40;;;20.30;99.90;;;;;;4955566;29;20632;-86
2023/07/22 07:51:19;;;;;;;9.77;3.17;;;20.60;99.90;;;;;;4955323;29;20181;-84
2023/07/22 07:53:49;;;;;;;4.68;3.42;;;20.80;99.90;;;;;;4938240;29;20219;-84
2023/07/22 07:56:16;;;;;;;3.80;2.78;;;20.80;99.90;;;;;;4937918;29;20194;-85
2023/07/22 07:58:42;;;;;;;6.50;3.40;;;20.80;99.90;;;;;;4954998;29;20175;-85
2023/07/22 08:01:08;;;;;;;5.70;4.45;;;20.80;99.90;;;;;;4938054;29;20187;-85
2023/07/22 08:03:37;;;;;;;6.18;3.58;;;20.80;99.90;;;;;;4955241;29;20207;-86
2023/07/22 08:06:03;;;;;;;4.90;3.20;;;20.90;99.90;;;;;;4937721;29;20656;-85
2023/07/22 08:08:29;;;;;;;3.92;3.30;;;21.00;99.90;;;;;;4946214;29;20239;-84
2023/07/22 08:11:03;;;;;;;4.07;3.30;;;21.10;99.90;;;;;;4937620;29;20266;-85
2023/07/22 08:13:30;;;;;;;5.47;3.13;;;21.00;99.90;;;;;;4954911;29;20245;-85
2023/07/22 08:15:57;;;;;;;8.95;3.50;;;21.00;99.90;;;;;;4953843;29;20179;-86
2023/07/22 08:18:23;;;;;;;3.92;3.25;;;21.20;99.90;;;;;;4937911;29;20179;-85
2023/07/22 08:20:50;;;;;;;4.13;3.20;;;21.20;99.90;;;;;;4953641;29;20190;-86
2023/07/22 08:23:16;;;;;;;4.90;3.72;;;21.40;99.90;;;;;;4954912;29;20179;-87
2023/07/22 08:25:41;;;;;;;2.97;2.70;;;21.50;99.90;;;;;;4937499;29;20241;-86
2023/07/22 08:28:07;;;;;;;5.13;3.40;;;21.50;99.90;;;;;;4953277;29;20194;-86
2023/07/22 08:30:33;;;;;;;4.53;3.08;;;21.50;99.90;;;;;;4954861;29;20190;-85
2023/07/22 08:32:58;;;;;;;5.47;3.10;;;21.70;99.90;;;;;;4953281;29;20226;-86
2023/07/22 08:35:24;;;;;;;3.47;2.88;;;21.80;99.90;;;;;;4937705;29;20226;-86
2023/07/22 08:37:50;;;;;;;4.75;3.00;;;21.90;99.90;;;;;;4953505;29;20186;-86
2023/07/22 08:40:16;;;;;;;3.40;2.90;;;22.00;99.90;;;;;;4954442;28;20191;-86
2023/07/22 08:42:45;;;;;;;3.35;3.00;;;22.20;99.90;;;;;;4953251;29;20254;-86
2023/07/22 08:45:11;;;;;;;3.75;3.05;;;22.10;99.90;;;;;;4953333;29;20552;-85
2023/07/22 08:47:45;;;;;;;3.78;3.10;;;22.10;99.90;;;;;;4937298;29;20660;-85
2023/07/22 08:50:14;;;;;;;3.13;2.75;;;22.00;99.90;;;;;;4954578;29;20186;-85
2023/07/22 08:52:39;;;;;;;3.55;3.05;;;22.00;99.90;;;;;;4953363;29;20343;-85
2023/07/22 08:55:06;;;;;;;3.97;3.22;;;21.90;99.90;;;;;;4952984;29;20734;-85
2023/07/22 08:57:32;;;;;;;3.65;3.28;;;21.70;99.90;;;;;;4936973;29;20183;-84
2023/07/22 08:59:58;;;;;;;4.93;4.00;;;21.70;99.90;;;;;;4954655;29;20222;-86
2023/07/22 09:02:25;;;;;;;3.35;2.90;;;21.70;99.90;;;;;;4953195;29;20175;-86
2023/07/22 09:04:51;;;;;;;4.22;2.60;;;21.70;99.90;;;;;;4953162;29;20266;-85
2023/07/22 09:07:17;;;;;;;6.60;2.92;;;21.70;99.90;;;;;;4953015;28;20277;-85
2023/07/22 09:09:46;;;;;;;4.38;2.70;;;21.80;99.90;;;;;;4921496;29;20187;-86
2023/07/22 09:12:14;;;;;;;3.53;2.72;;;21.80;99.90;;;;;;4954406;29;20206;-86
2023/07/22 09:14:41;;;;;;;5.60;2.47;;;21.80;99.90;;;;;;4938171;29;20207;-85
2023/07/22 09:17:06;;;;;;;3.60;2.33;;;21.90;99.90;;;;;;4954372;29;20304;-85
2023/07/22 09:19:32;;;;;;;2.85;2.40;;;21.90;99.90;;;;;;4921416;29;20183;-87
2023/07/22 09:21:58;;;;;;;3.25;2.20;;;21.90;99.90;;;;;;4921195;29;20559;-84
2023/07/22 09:24:25;;;;;;;2.63;2.30;;;22.10;99.90;;;;;;4936930;29;20183;-85
2023/07/22 09:26:51;;;;;;;4.22;2.83;;;22.10;99.90;;;;;;4937121;29;20187;-85
2023/07/22 09:29:18;;;;;;;2.90;2.47;;;22.10;99.90;;;;;;4936931;29;20210;-84
2023/07/22 09:31:52;;;;;;;3.53;2.40;;;22.10;99.90;;;;;;4937054;29;20187;-85
2023/07/22 09:34:18;;;;;;;7.00;2.15;;;22.30;99.90;;;;;;4954207;29;20191;-85
2023/07/22 09:36:54;;;;;;;2.90;2.42;;;22.40;99.90;;;;;;4921053;29;20207;-85
2023/07/22 09:39:21;;;;;;;3.95;2.53;;;22.50;99.90;;;;;;4954302;29;20186;-85
2023/07/22 09:41:47;;;;;;;3.60;2.42;;;22.30;99.90;;;;;;4936994;29;20234;-85
2023/07/22 09:44:13;;;;;;;2.53;2.33;;;22.10;99.90;;;;;;4936950;29;20191;-84
2023/07/22 09:46:39;;;;;;;5.05;2.55;;;22.10;99.90;;;;;;4920976;29;20198;-85
2023/07/22 09:49:09;;;;;;;5.22;2.60;;;22.50;99.90;;;;;;4936912;29;20842;-84
2023/07/22 09:51:40;;;;;;;2.53;2.22;;;22.70;99.90;;;;;;4953858;28;20174;-86
2023/07/22 09:54:06;;;;;;;5.57;2.28;;;22.70;99.90;;;;;;4957407;29;20346;-84
2023/07/22 09:56:42;;;;;;;3.42;2.38;;;22.50;99.90;;;;;;4940320;29;20556;-84
2023/07/22 09:59:10;;;;;;;2.42;2.22;;;22.40;99.90;;;;;;4957796;29;20179;-85
2023/07/22 10:01:38;;;;;;;2.45;2.20;;;22.40;99.90;;;;;;4940187;29;20231;-86
2023/07/22 10:04:05;;;;;;;2.70;2.50;;;22.40;99.90;;;;;;4940036;29;20183;-85
2023/07/22 10:06:32;;;;;;;3.20;2.65;;;22.40;99.90;;;;;;4960649;29;20171;-86
2023/07/22 10:09:02;;;;;;;3.00;2.30;;;22.50;99.90;;;;;;4994744;28;20234;-86
2023/07/22 10:11:28;;;;;;;1.85;1.70;;;22.60;99.90;;;;;;4987805;28;20564;-84
2023/07/22 10:13:55;;;;;;;3.70;2.65;;;22.70;99.90;;;;;;4995299;28;20224;-85
2023/07/22 10:16:22;;;;;;;2.58;2.20;;;22.90;99.90;;;;;;4976573;28;20209;-84
2023/07/22 10:18:48;;;;;;;3.40;2.58;;;23.00;99.90;;;;;;4958947;28;20211;-84
2023/07/22 10:21:15;;;;;;;3.10;2.08;;;22.90;99.90;;;;;;4960451;28;20274;-86
2023/07/22 10:23:41;;;;;;;1.90;1.73;;;22.70;99.90;;;;;;4959744;28;20201;-85
2023/07/22 10:26:07;;;;;;;4.47;2.22;;;22.70;99.90;;;;;;4958927;28;20183;-85
2023/07/22 10:28:33;;;;;;;3.10;2.30;;;22.70;99.90;;;;;;4958338;28;20189;-84
2023/07/22 10:31:00;;;;;;;2.00;1.85;;;22.60;99.90;;;;;;4974408;28;20182;-84
2023/07/22 10:33:26;;;;;;;3.10;2.15;;;22.60;99.90;;;;;;4974557;28;20689;-83
2023/07/22 10:36:09;;;;;;;2.17;1.90;;;22.40;99.90;;;;;;4961620;28;20183;-83
2023/07/22 10:38:35;;;;;;;2.13;1.92;;;22.20;99.90;;;;;;4956285;29;20226;-83
2023/07/22 10:41:10;;;;;;;1.88;1.77;;;22.00;99.90;;;;;;4939218;29;20183;-83
2023/07/22 10:43:37;;;;;;;2.58;2.08;;;22.20;99.90;;;;;;4940497;29;20218;-84
2023/07/22 10:46:10;;;;;;;2.88;1.98;;;22.60;99.90;;;;;;4923776;29;20183;-84
2023/07/22 10:48:37;;;;;;;1.80;1.70;;;23.00;99.90;;;;;;4956215;29;20202;-84
2023/07/22 10:51:21;;;;;;;2.28;1.60;;;23.30;99.90;;;;;;4923370;29;20187;-84
2023/07/22 10:53:48;;;;;;;2.42;1.80;;;23.20;99.90;;;;;;4956322;29;20724;-84
2023/07/22 10:56:21;;;;;;;2.10;1.60;;;22.80;99.80;;;;;;4938685;29;20223;-84
2023/07/22 10:58:47;;;;;;;1.63;1.52;;;22.50;99.70;;;;;;4938747;29;20270;-83
2023/07/22 11:01:28;;;;;;;2.63;1.45;;;22.40;99.80;;;;;;4956136;29;20213;-84
2023/07/22 11:04:10;;;;;;;2.33;1.73;;;22.60;97.40;;;;;;4955804;28;20179;-83
2023/07/22 11:06:49;;;;;;;2.60;1.50;;;22.80;95.90;;;;;;4956981;28;20241;-84
2023/07/22 11:09:30;;;;;;;1.60;1.50;;;22.90;95.30;;;;;;4976731;28;20229;-84
2023/07/22 11:11:59;;;;;;;1.98;1.60;;;23.20;94.80;;;;;;4990908;28;20167;-85
2023/07/22 11:14:27;;;;;;;1.23;1.13;;;23.50;93.30;;;;;;4998436;28;20241;-84
2023/07/22 11:16:53;;;;;;;1.90;1.40;;;23.60;91.40;;;;;;4985146;28;20648;-83
2023/07/22 11:19:20;;;;;;;2.83;1.20;;;23.50;91.20;;;;;;4975497;28;20188;-84
2023/07/22 11:21:47;;;;;;;1.98;1.35;;;23.40;90.10;;;;;;4973875;28;20190;-84
2023/07/22 11:24:16;;;;;;;1.40;1.30;;;23.40;90.80;;;;;;4973771;28;20265;-86
2023/07/22 11:26:41;;;;;;;1.30;1.20;;;23.30;90.70;;;;;;4973294;28;20199;-84
2023/07/22 11:29:09;;;;;;;2.03;1.48;;;23.30;90.20;;;;;;4974961;28;20174;-84
2023/07/22 11:31:36;;;;;;;2.65;1.27;;;23.20;90.70;;;;;;4973268;28;20178;-84
2023/07/22 11:34:05;;;;;;;2.03;1.48;;;23.00;91.50;;;;;;4973669;28;20215;-84
2023/07/22 11:36:31;;;;;;;1.98;1.30;;;22.90;92.30;;;;;;4973539;28;20194;-85
2023/07/22 11:39:12;;;;;;;2.05;1.63;;;22.80;92.50;;;;;;4971732;28;20182;-84
2023/07/22 11:41:38;;;;;;;1.50;1.40;;;22.70;92.00;;;;;;4961609;28;20251;-84
2023/07/22 11:44:08;;;;;;;1.73;1.60;;;22.70;93.00;;;;;;4974175;28;20702;-83
2023/07/22 11:46:35;;;;;;;1.35;1.25;;;22.80;92.10;;;;;;4973105;28;20528;-84
2023/07/22 11:49:01;;;;;;;4.22;1.45;;;23.20;92.20;;;;;;4973122;28;20179;-83
2023/07/22 11:51:27;;;;;;;1.58;1.48;;;23.50;91.30;;;;;;4973019;28;20643;-84
2023/07/22 11:53:54;;;;;;;3.67;1.50;;;23.90;91.90;;;;;;4963775;28;20591;-83
2023/07/22 11:56:26;;;;;;;3.42;1.70;;;24.00;91.10;;;;;;4921886;29;20270;-84
2023/07/22 11:58:53;;;;;;;4.32;1.50;;;23.70;90.60;;;;;;4921736;29;20245;-84
2023/07/22 12:01:19;;;;;;;1.50;1.40;;;23.70;90.50;;;;;;4926452;28;20195;-84
2023/07/22 12:03:46;;;;;;;2.45;1.52;;;23.90;89.60;;;;;;4972498;28;20186;-83
2023/07/22 12:06:12;;;;;;;1.63;1.15;;;24.00;87.40;;;;;;4974021;28;20233;-84
2023/07/22 12:08:48;;;;;;;1.52;1.42;;;24.00;85.30;;;;;;4973622;28;20588;-84
2023/07/22 12:11:22;;;;;;;2.80;1.77;;;23.70;81.10;;;;;;4974040;28;20175;-84
2023/07/22 12:14:09;;;;;;;1.38;1.27;;;23.70;84.40;;;;;;4972363;28;20222;-85
2023/07/22 12:16:40;;;;;;;4.07;1.27;;;23.70;81.40;;;;;;4968845;28;20277;-84
2023/07/22 12:19:06;;;;;;;1.30;1.20;;;23.90;82.20;;;;;;4955019;29;20186;-84
2023/07/22 12:21:33;;;;;;;1.20;1.10;;;23.90;78.70;;;;;;4966963;28;20179;-84
2023/07/22 12:23:59;;;;;;;1.33;1.20;;;23.80;78.10;;;;;;4974170;28;20241;-85
2023/07/22 12:26:25;;;;;;;4.82;1.20;;;23.90;76.50;;;;;;4974022;28;20563;-85
2023/07/22 12:28:51;;;;;;;1.42;1.33;;;24.10;74.40;;;;;;4973756;28;20206;-84
2023/07/22 12:31:16;;;;;;;1.63;1.30;;;24.30;73.60;;;;;;4972522;28;20205;-85
2023/07/22 12:33:42;;;;;;;1.17;1.10;;;24.20;74.50;;;;;;4967695;28;20310;-85
2023/07/22 12:36:08;;;;;;;1.38;1.27;;;24.20;74.40;;;;;;4956289;28;20171;-85
2023/07/22 12:38:34;;;;;;;2.28;1.60;;;24.00;74.80;;;;;;4958380;28;20242;-85
2023/07/22 12:41:00;;;;;;;2.45;1.10;;;23.70;75.10;;;;;;4954447;29;20254;-84
2023/07/22 12:43:26;;;;;;;1.55;1.40;;;23.70;74.70;;;;;;4921585;29;20715;-86